Time;durP1;ratioP1;P1;durP2;ratioP2;P2;SDS_P1;SDS_P2;PMS_P1;PMS_P2;Temp;Humidity;BMP_temperature;BMP_pressure;BME280_temperature;BME280_humidity;BME280_pressure;Samples;Min_cycle;Max_cycle;Signal;HPM_P1;HPM_P2
2021/08/11 00:01:21;;;;;;;15.77;5.13;;;;;;;26.38;50.49;100272.28;4994537;28;20029;-66
2021/08/11 00:03:46;;;;;;;8.55;4.80;;;;;;;26.53;50.12;100293.00;4994448;28;20495;-68
2021/08/11 00:06:11;;;;;;;8.38;4.80;;;;;;;26.49;50.78;100304.56;4994420;28;20034;-68
2021/08/11 00:08:37;;;;;;;7.13;4.60;;;;;;;26.43;50.84;100294.16;4994574;28;20030;-68
2021/08/11 00:11:02;;;;;;;9.05;4.97;;;;;;;26.36;50.70;100290.00;4994467;28;20029;-68
2021/08/11 00:13:28;;;;;;;6.82;5.10;;;;;;;26.35;51.39;100302.38;4993334;28;20113;-67
2021/08/11 00:15:53;;;;;;;10.43;4.80;;;;;;;26.27;51.42;100296.44;4994314;28;20039;-68
2021/08/11 00:18:19;;;;;;;8.13;5.10;;;;;;;26.36;51.32;100300.59;4994239;28;20054;-69
2021/08/11 00:20:44;;;;;;;7.00;4.55;;;;;;;26.47;51.05;100301.13;4993391;28;20382;-66
2021/08/11 00:23:10;;;;;;;12.30;4.85;;;;;;;26.36;52.40;100292.66;4994336;28;20089;-68
2021/08/11 00:25:35;;;;;;;9.80;5.05;;;;;;;26.32;53.11;100302.47;4994054;28;20156;-68
2021/08/11 00:28:01;;;;;;;9.07;4.93;;;;;;;26.32;52.60;100283.94;4994160;28;20519;-68
2021/08/11 00:30:27;;;;;;;8.38;4.95;;;;;;;26.53;52.62;100297.41;4994084;28;20484;-68
2021/08/11 00:32:53;;;;;;;7.72;4.97;;;;;;;26.55;52.16;100307.03;4994067;28;20029;-68
2021/08/11 00:35:18;;;;;;;8.35;5.13;;;;;;;26.37;52.61;100289.97;4993812;28;20034;-68
2021/08/11 00:37:44;;;;;;;11.65;5.22;;;;;;;26.42;52.49;100295.97;4994400;28;20034;-70
2021/08/11 00:40:12;;;;;;;10.60;5.07;;;;;;;26.47;52.26;100303.78;4993869;28;20037;-68
2021/08/11 00:42:37;;;;;;;7.68;5.22;;;;;;;26.56;51.36;100303.47;4993539;28;20022;-72
2021/08/11 00:45:04;;;;;;;7.30;5.32;;;;;;;26.62;51.56;100299.75;4993698;28;20473;-68
2021/08/11 00:47:33;;;;;;;8.38;5.20;;;;;;;26.55;51.27;100304.38;4993658;28;20035;-69
2021/08/11 00:50:00;;;;;;;10.48;5.15;;;;;;;26.76;50.64;100291.41;4991680;28;20046;-68
2021/08/11 00:52:25;;;;;;;8.95;4.88;;;;;;;26.74;51.20;100287.91;4993500;28;20096;-68
2021/08/11 00:54:53;;;;;;;9.75;5.03;;;;;;;26.79;51.27;100291.28;4993590;28;20109;-68
2021/08/11 00:57:20;;;;;;;7.93;4.97;;;;;;;26.79;51.44;100284.22;4993517;28;20052;-68
2021/08/11 00:59:49;;;;;;;7.65;4.72;;;;;;;26.88;51.41;100283.03;4993461;28;20061;-68
2021/08/11 01:02:17;;;;;;;10.77;4.80;;;;;;;26.87;50.98;100278.66;4993048;28;20043;-68
2021/08/11 01:04:43;;;;;;;9.27;4.63;;;;;;;26.72;51.32;100250.03;4958945;28;20042;-66
2021/08/11 01:07:09;;;;;;;7.55;4.85;;;;;;;26.65;52.20;100275.81;4993428;28;20034;-68
2021/08/11 01:09:37;;;;;;;10.93;4.90;;;;;;;26.61;51.59;100275.06;4993270;28;20532;-68
2021/08/11 01:12:03;;;;;;;10.27;4.63;;;;;;;26.76;50.88;100267.56;4993057;28;20033;-68
2021/08/11 01:14:29;;;;;;;7.50;4.70;;;;;;;26.74;51.28;100266.72;4993553;28;20026;-68
2021/08/11 01:16:55;;;;;;;10.70;5.18;;;;;;;26.60;51.60;100265.38;4993119;28;20177;-68
2021/08/11 01:19:20;;;;;;;9.70;5.35;;;;;;;26.41;52.34;100257.19;4993345;28;20101;-68
2021/08/11 01:22:00;;;;;;;10.50;4.85;;;;;;;26.58;52.22;100269.00;4993087;28;20045;-68
2021/08/11 01:24:35;;;;;;;10.60;5.32;;;;;;;26.49;51.78;100233.09;4993180;28;20037;-68
2021/08/11 01:27:51;;;;;;;8.38;5.22;;;;;;;26.26;53.42;100266.47;4992970;28;20030;-67
2021/08/11 01:30:22;;;;;;;21.65;5.65;;;;;;;26.27;53.02;100260.28;4913882;29;20036;-68
2021/08/11 01:32:48;;;;;;;15.52;5.60;;;;;;;26.12;52.23;100229.88;4913474;29;20071;-68
2021/08/11 01:35:19;;;;;;;9.35;4.82;;;;;;;26.26;52.38;100258.53;4913931;29;20523;-68
2021/08/11 01:37:49;;;;;;;9.93;5.32;;;;;;;26.18;52.36;100259.69;4913957;29;20035;-68
2021/08/11 01:40:21;;;;;;;8.68;4.90;;;;;;;26.23;52.17;100261.28;4913958;29;20044;-68
2021/08/11 01:42:48;;;;;;;10.40;5.47;;;;;;;26.30;52.61;100257.50;4913589;29;20529;-68
2021/08/11 01:45:27;;;;;;;10.55;4.70;;;;;;;26.23;52.56;100256.00;4913632;29;20107;-68
2021/08/11 01:47:56;;;;;;;9.17;5.37;;;;;;;26.00;53.11;100259.31;4913693;29;20036;-68
2021/08/11 01:50:22;;;;;;;8.55;5.20;;;;;;;25.96;53.05;100247.97;4913589;29;20264;-68
2021/08/11 01:52:50;;;;;;;9.15;5.90;;;;;;;25.87;52.91;100218.28;4913555;29;20043;-68
2021/08/11 01:55:15;;;;;;;12.02;5.50;;;;;;;26.14;52.40;100248.34;4913689;29;20036;-68
2021/08/11 01:57:50;;;;;;;8.63;5.32;;;;;;;26.02;52.48;100249.56;4913763;29;20506;-68
2021/08/11 02:00:16;;;;;;;9.43;5.20;;;;;;;25.87;53.09;100256.19;4913543;29;20195;-68
2021/08/11 02:02:44;;;;;;;10.05;5.80;;;;;;;25.94;53.09;100246.28;4913626;29;20028;-68
2021/08/11 02:05:11;;;;;;;8.90;5.18;;;;;;;26.06;52.81;100250.38;4940514;28;20046;-68
2021/08/11 02:07:40;;;;;;;9.32;5.68;;;;;;;26.07;52.80;100250.31;4992470;28;20023;-68
2021/08/11 02:10:07;;;;;;;10.00;6.20;;;;;;;26.06;52.90;100256.50;4992539;28;20093;-68
2021/08/11 02:12:33;;;;;;;12.48;6.32;;;;;;;26.00;53.17;100249.59;4974329;28;20417;-67
2021/08/11 02:14:59;;;;;;;9.18;6.60;;;;;;;25.64;53.75;100217.19;4992216;28;20030;-68
2021/08/11 02:17:25;;;;;;;8.23;5.25;;;;;;;25.74;54.08;100257.44;4992770;28;21077;-68
2021/08/11 02:19:50;;;;;;;15.48;6.43;;;;;;;25.72;53.96;100243.41;4992381;28;20041;-68
2021/08/11 02:22:16;;;;;;;17.42;5.90;;;;;;;25.81;53.65;100244.00;4992199;28;20069;-68
2021/08/11 02:24:42;;;;;;;13.50;5.93;;;;;;;25.73;53.58;100234.56;4992541;28;20034;-68
2021/08/11 02:27:25;;;;;;;9.98;6.00;;;;;;;25.96;53.77;100247.97;4992186;28;20031;-68
2021/08/11 02:30:20;;;;;;;9.05;5.35;;;;;;;26.11;53.08;100245.81;4992138;28;20026;-68
2021/08/11 02:32:54;;;;;;;14.43;6.85;;;;;;;26.00;53.59;100249.59;4913391;29;20076;-68
2021/08/11 02:35:28;;;;;;;12.25;6.15;;;;;;;25.54;54.14;100232.47;4913043;29;20594;-68
2021/08/11 02:38:02;;;;;;;8.20;6.38;;;;;;;25.81;53.56;100251.94;4913349;29;20067;-68
2021/08/11 02:40:49;;;;;;;9.73;5.85;;;;;;;25.84;53.82;100258.91;4912958;29;20032;-68
2021/08/11 02:43:30;;;;;;;7.47;5.60;;;;;;;25.54;53.69;100227.16;4915483;29;20059;-68
2021/08/11 02:46:06;;;;;;;9.73;5.47;;;;;;;25.63;53.70;100248.06;4916810;29;20111;-67
2021/08/11 02:48:33;;;;;;;8.00;5.57;;;;;;;25.49;54.56;100247.59;4916648;29;20107;-67
2021/08/11 02:51:00;;;;;;;9.55;5.28;;;;;;;25.57;54.20;100253.53;4916558;29;20048;-68
2021/08/11 02:53:28;;;;;;;16.35;5.78;;;;;;;25.57;54.25;100256.19;4916563;29;20503;-72
2021/08/11 02:55:54;;;;;;;10.93;6.18;;;;;;;25.30;54.66;100245.44;4916776;29;20051;-68
2021/08/11 02:58:21;;;;;;;15.07;5.80;;;;;;;24.79;56.06;100235.38;4916626;29;20120;-68
2021/08/11 03:00:48;;;;;;;21.63;7.38;;;;;;;24.68;57.08;100254.97;4916523;29;20499;-67
2021/08/11 03:03:14;;;;;;;14.77;6.57;;;;;;;24.63;57.34;100248.91;4916372;29;20048;-68
2021/08/11 03:05:40;;;;;;;17.35;6.75;;;;;;;24.57;57.29;100245.56;4916577;29;20119;-68
2021/08/11 03:08:06;;;;;;;12.98;6.47;;;;;;;24.69;57.17;100245.28;4916672;29;20039;-68
2021/08/11 03:10:32;;;;;;;17.95;6.35;;;;;;;24.72;56.83;100239.91;4990055;28;20066;-68
2021/08/11 03:12:59;;;;;;;14.50;6.05;;;;;;;24.83;56.74;100250.22;4995396;28;20108;-67
2021/08/11 03:15:27;;;;;;;15.98;6.97;;;;;;;24.80;56.79;100245.00;4995480;28;20038;-71
2021/08/11 03:17:52;;;;;;;16.17;6.60;;;;;;;24.66;56.83;100211.03;4995459;28;20057;-68
2021/08/11 03:20:18;;;;;;;15.93;6.95;;;;;;;24.88;56.58;100253.59;4995341;28;20026;-67
2021/08/11 03:22:44;;;;;;;27.15;7.75;;;;;;;24.80;56.71;100251.16;4995156;28;20045;-68
2021/08/11 03:25:10;;;;;;;10.80;6.40;;;;;;;24.91;56.09;100245.59;4995252;28;20504;-68
2021/08/11 03:27:36;;;;;;;13.70;6.20;;;;;;;25.15;55.78;100254.63;4995411;28;20409;-66
2021/08/11 03:30:02;;;;;;;10.60;5.70;;;;;;;25.26;54.43;100241.16;4995101;28;20046;-70
2021/08/11 03:32:28;;;;;;;10.68;5.60;;;;;;;25.42;53.86;100262.75;4995043;28;20176;-68
2021/08/11 03:34:53;;;;;;;12.38;5.90;;;;;;;25.43;54.08;100253.03;4995024;28;20452;-68
2021/08/11 03:37:18;;;;;;;8.60;6.25;;;;;;;25.31;53.64;100235.72;4995255;28;20026;-68
2021/08/11 03:39:44;;;;;;;11.65;6.20;;;;;;;25.45;53.43;100256.53;4994851;28;20102;-68
2021/08/11 03:42:09;;;;;;;15.32;6.72;;;;;;;25.45;53.31;100264.44;4994869;28;20112;-68
2021/08/11 03:44:35;;;;;;;15.63;5.90;;;;;;;25.28;53.32;100251.66;4994867;28;20022;-68
2021/08/11 03:47:01;;;;;;;10.43;6.38;;;;;;;25.31;53.14;100244.53;4994603;28;20069;-67
2021/08/11 03:49:27;;;;;;;12.38;5.85;;;;;;;25.48;53.14;100275.81;4960863;28;20034;-68
2021/08/11 03:51:52;;;;;;;11.80;6.38;;;;;;;25.33;52.75;100252.41;4994663;28;20415;-68
2021/08/11 03:54:18;;;;;;;13.93;6.25;;;;;;;25.44;52.87;100271.50;4993977;28;20401;-68
2021/08/11 03:56:43;;;;;;;14.43;6.32;;;;;;;25.46;53.04;100285.53;4994753;28;20101;-67
2021/08/11 03:59:08;;;;;;;14.00;6.97;;;;;;;25.43;53.80;100287.41;4994475;28;20456;-68
2021/08/11 04:01:34;;;;;;;16.88;6.65;;;;;;;25.12;54.11;100267.94;4994357;28;20480;-68
2021/08/11 04:03:59;;;;;;;14.40;6.50;;;;;;;24.99;54.42;100291.16;4994401;28;20026;-68
2021/08/11 04:06:25;;;;;;;13.80;6.20;;;;;;;24.88;55.03;100261.50;4994605;28;20026;-68
2021/08/11 04:08:50;;;;;;;18.10;6.65;;;;;;;24.99;55.02;100296.44;4994626;28;20022;-68
2021/08/11 04:11:16;;;;;;;20.40;7.13;;;;;;;24.78;55.47;100282.00;4994481;28;20428;-68
2021/08/11 04:13:41;;;;;;;14.60;6.70;;;;;;;24.65;56.15;100296.41;4994513;28;20037;-68
2021/08/11 04:16:07;;;;;;;15.35;6.78;;;;;;;24.52;57.16;100306.34;4994096;28;20128;-68
2021/08/11 04:18:32;;;;;;;15.70;7.03;;;;;;;24.46;57.60;100306.50;4993953;28;20124;-69
2021/08/11 04:20:58;;;;;;;17.08;6.80;;;;;;;24.43;57.33;100303.94;4994380;28;20037;-68
2021/08/11 04:23:23;;;;;;;17.40;6.85;;;;;;;24.40;57.39;100307.53;4994197;28;20105;-67
2021/08/11 04:25:49;;;;;;;16.55;7.50;;;;;;;24.35;57.15;100306.75;4994062;28;20128;-68
2021/08/11 04:28:17;;;;;;;11.80;6.97;;;;;;;24.51;57.07;100304.63;4994573;28;20018;-68
2021/08/11 04:30:43;;;;;;;12.35;6.80;;;;;;;24.44;56.88;100306.53;4993996;28;20113;-67
2021/08/11 04:33:08;;;;;;;12.50;7.30;;;;;;;24.16;56.92;100272.00;4994147;28;20065;-68
2021/08/11 04:35:37;;;;;;;12.02;7.20;;;;;;;24.16;57.94;100283.44;4994015;28;20041;-67
2021/08/11 04:38:03;;;;;;;13.95;7.32;;;;;;;24.28;57.98;100308.66;4975885;28;20386;-68
2021/08/11 04:40:28;;;;;;;15.35;6.75;;;;;;;24.35;58.55;100320.81;4993759;28;20040;-68
2021/08/11 04:42:54;;;;;;;17.33;7.10;;;;;;;24.49;58.27;100311.72;4991676;28;20042;-68
2021/08/11 04:45:19;;;;;;;11.75;6.80;;;;;;;24.30;58.64;100280.50;4993556;28;20061;-68
2021/08/11 04:47:46;;;;;;;13.70;7.22;;;;;;;24.46;58.19;100306.50;4993806;28;20092;-68
2021/08/11 04:50:12;;;;;;;12.02;8.13;;;;;;;24.34;58.20;100297.97;4993554;28;20022;-68
2021/08/11 04:52:37;;;;;;;12.20;6.63;;;;;;;24.15;58.84;100294.00;4993947;28;20023;-68
2021/08/11 04:55:03;;;;;;;16.60;7.78;;;;;;;24.43;58.80;100314.50;4993376;28;20078;-68
2021/08/11 04:57:29;;;;;;;17.42;8.77;;;;;;;24.29;59.18;100330.63;4993344;28;20481;-68
2021/08/11 04:59:54;;;;;;;13.38;7.15;;;;;;;23.96;59.06;100275.94;4993360;28;20026;-67
2021/08/11 05:02:19;;;;;;;16.35;7.13;;;;;;;24.37;59.37;100311.09;4993499;28;20023;-67
2021/08/11 05:04:45;;;;;;;19.05;8.40;;;;;;;24.46;59.34;100327.63;4993348;28;20030;-69
2021/08/11 05:07:10;;;;;;;12.93;7.03;;;;;;;24.54;59.17;100323.03;4993228;28;20026;-67
2021/08/11 05:09:36;;;;;;;16.02;7.55;;;;;;;24.29;59.72;100328.88;4993301;28;20044;-68
2021/08/11 05:12:02;;;;;;;15.68;8.15;;;;;;;24.42;59.61;100333.88;4993376;28;20077;-68
2021/08/11 05:14:29;;;;;;;17.10;7.63;;;;;;;24.54;59.76;100323.03;4993402;28;20136;-68
2021/08/11 05:16:55;;;;;;;14.20;6.88;;;;;;;24.84;58.04;100333.81;4993246;28;20149;-67
2021/08/11 05:19:20;;;;;;;12.13;7.35;;;;;;;24.99;58.36;100337.84;4993507;28;20473;-68
2021/08/11 05:21:46;;;;;;;12.75;6.80;;;;;;;25.08;57.08;100337.59;4993093;28;20397;-67
2021/08/11 05:24:11;;;;;;;13.68;7.22;;;;;;;25.31;56.62;100328.19;4993168;28;20023;-68
2021/08/11 05:26:40;;;;;;;10.20;6.97;;;;;;;25.22;56.51;100331.94;4993027;28;20026;-68
2021/08/11 05:29:05;;;;;;;9.18;6.68;;;;;;;25.44;56.42;100328.78;4992913;28;20045;-68
2021/08/11 05:31:31;;;;;;;11.60;6.50;;;;;;;25.60;55.91;100324.81;4993140;28;20034;-68
2021/08/11 05:33:56;;;;;;;14.45;7.15;;;;;;;25.72;55.52;100313.03;4974793;28;20045;-68
2021/08/11 05:36:22;;;;;;;10.20;6.63;;;;;;;25.88;56.24;100326.66;4992772;28;20026;-67
2021/08/11 05:38:47;;;;;;;13.30;6.40;;;;;;;26.01;57.01;100321.88;4992826;28;20018;-68
2021/08/11 05:41:13;;;;;;;8.40;6.15;;;;;;;26.05;58.03;100314.72;4992520;28;20034;-68
2021/08/11 05:43:38;;;;;;;16.52;7.57;;;;;;;25.98;57.73;100299.03;4992537;28;20026;-68
2021/08/11 05:46:06;;;;;;;17.48;7.43;;;;;;;26.05;56.56;100305.00;4992577;28;20473;-68
2021/08/11 05:48:32;;;;;;;10.50;7.32;;;;;;;26.36;55.67;100338.50;4992725;28;20030;-72
2021/08/11 06:47:15;;;;;;;18.25;6.45;;;;;;;27.66;49.31;100331.56;4983304;28;20486;-68
2021/08/11 06:49:41;;;;;;;15.65;6.70;;;;;;;27.88;48.83;100336.13;4998497;28;20066;-67
2021/08/11 06:52:06;;;;;;;14.55;6.00;;;;;;;27.69;47.67;100325.28;4980229;28;20472;-67
2021/08/11 06:54:32;;;;;;;11.68;5.80;;;;;;;27.89;47.50;100325.44;4996990;28;20034;-67
2021/08/11 06:56:57;;;;;;;10.48;6.00;;;;;;;27.85;48.21;100294.66;4998766;28;20023;-68
2021/08/11 06:59:23;;;;;;;16.55;5.40;;;;;;;27.99;49.34;100331.25;4998780;28;20035;-70
2021/08/11 07:01:48;;;;;;;10.35;6.03;;;;;;;28.12;47.01;100318.41;4938369;29;20032;-68
2021/08/11 07:04:16;;;;;;;8.40;5.60;;;;;;;28.28;47.23;100323.16;4922070;29;20051;-68
2021/08/11 07:06:42;;;;;;;9.45;5.38;;;;;;;28.55;46.81;100316.72;4938258;29;20043;-68
2021/08/11 07:09:07;;;;;;;9.07;5.72;;;;;;;28.64;46.14;100312.81;4938106;29;20040;-67
2021/08/11 07:11:34;;;;;;;12.63;5.95;;;;;;;28.57;46.11;100311.34;4938623;29;20043;-68
2021/08/11 07:13:59;;;;;;;10.30;5.03;;;;;;;28.66;46.20;100304.78;4938309;29;20035;-68
2021/08/11 07:16:25;;;;;;;9.25;5.38;;;;;;;28.68;46.32;100317.09;4938140;29;20083;-68
2021/08/11 07:18:50;;;;;;;13.35;5.50;;;;;;;28.86;45.96;100328.78;4937931;29;20130;-68
2021/08/11 07:21:16;;;;;;;9.98;5.85;;;;;;;29.10;46.21;100318.03;4937929;29;20071;-68
2021/08/11 07:23:41;;;;;;;10.93;5.43;;;;;;;29.12;45.87;100296.69;4938145;29;20043;-69
2021/08/11 07:26:09;;;;;;;17.17;6.28;;;;;;;29.23;45.35;100301.56;4938042;29;20575;-68
2021/08/11 07:28:38;;;;;;;10.32;5.32;;;;;;;29.35;44.36;100317.00;4936632;29;20040;-68
2021/08/11 07:31:04;;;;;;;12.15;5.32;;;;;;;29.25;46.42;100323.59;4904144;29;20095;-68
2021/08/11 07:33:50;;;;;;;11.70;5.78;;;;;;;29.26;47.44;100322.69;4989894;28;20061;-67
2021/08/11 07:36:15;;;;;;;11.02;5.38;;;;;;;29.36;45.85;100310.75;4976311;28;20045;-68
2021/08/11 07:38:42;;;;;;;12.65;5.25;;;;;;;29.43;45.88;100320.19;4960357;28;20042;-68
2021/08/11 07:41:11;;;;;;;12.75;5.20;;;;;;;29.59;45.37;100316.84;4976668;28;20507;-68
2021/08/11 07:43:52;;;;;;;9.70;4.85;;;;;;;29.65;46.23;100313.91;4990356;28;20050;-68
2021/08/11 07:46:33;;;;;;;12.23;5.40;;;;;;;29.72;43.84;100312.72;4976976;28;20030;-68
2021/08/11 07:49:06;;;;;;;12.55;5.45;;;;;;;29.74;46.09;100300.19;4976122;28;20050;-68
2021/08/11 07:51:36;;;;;;;10.23;5.57;;;;;;;29.80;44.63;100302.56;4976521;28;20046;-67
2021/08/11 07:54:21;;;;;;;9.70;5.40;;;;;;;29.97;43.89;100303.59;4992782;28;20066;-68
2021/08/11 07:56:48;;;;;;;11.65;5.57;;;;;;;30.06;43.46;100303.19;4972983;28;20049;-68
2021/08/11 07:59:56;;;;;;;13.63;5.88;;;;;;;30.23;43.22;100297.03;4953663;29;20070;-68
2021/08/11 08:02:43;;;;;;;14.73;5.55;;;;;;;30.54;40.78;100297.38;4934250;29;20665;-68
2021/08/11 08:05:11;;;;;;;20.40;7.25;;;;;;;30.63;39.29;100271.16;4934550;29;20048;-68
2021/08/11 08:07:59;;;;;;;27.88;7.70;;;;;;;30.75;40.37;100295.47;4915336;29;20044;-71
2021/08/11 08:10:28;;;;;;;26.27;6.57;;;;;;;30.78;40.02;100295.28;4915121;29;20490;-68
2021/08/11 08:12:55;;;;;;;14.20;6.38;;;;;;;30.91;39.72;100284.88;4915049;29;20043;-68
2021/08/11 08:15:25;;;;;;;13.30;5.57;;;;;;;30.89;39.67;100292.09;4899564;29;20069;-68
2021/08/11 08:17:53;;;;;;;17.35;6.10;;;;;;;30.64;40.10;100296.88;4869093;29;20048;-73
2021/08/11 08:20:42;;;;;;;13.95;5.65;;;;;;;30.78;40.28;100289.97;4843487;29;20062;-68
2021/08/11 08:23:28;;;;;;;13.40;5.57;;;;;;;30.81;39.89;100284.50;4845637;29;20089;-69
2021/08/11 08:26:14;;;;;;;13.35;5.55;;;;;;;30.95;39.83;100294.44;4840254;29;20112;-73
2021/08/11 08:28:48;;;;;;;11.98;5.75;;;;;;;30.96;39.40;100266.84;4824247;29;20047;-68
2021/08/11 08:31:19;;;;;;;12.77;5.35;;;;;;;31.24;39.22;100281.44;4770928;30;20074;-68
2021/08/11 08:34:05;;;;;;;11.27;4.53;;;;;;;31.39;38.40;100280.63;4785677;30;20140;-69
2021/08/11 08:36:31;;;;;;;13.70;5.53;;;;;;;31.53;39.46;100281.69;4785580;29;20146;-68
2021/08/11 08:38:59;;;;;;;11.88;5.45;;;;;;;31.47;41.48;100266.88;4797379;29;20069;-68
2021/08/11 08:41:28;;;;;;;13.57;5.20;;;;;;;31.68;38.28;100272.00;4803550;29;20234;-68
2021/08/11 08:44:23;;;;;;;10.00;5.05;;;;;;;31.80;37.61;100265.16;4803794;29;20054;-68
2021/08/11 08:47:12;;;;;;;10.52;5.65;;;;;;;31.99;37.09;100267.66;4839683;29;20046;-68
2021/08/11 08:50:00;;;;;;;11.75;4.70;;;;;;;32.20;35.77;100254.91;4837824;29;20453;-68
2021/08/11 08:52:52;;;;;;;9.67;4.60;;;;;;;31.98;34.90;100250.78;4839630;29;20050;-68
2021/08/11 08:55:23;;;;;;;12.70;5.50;;;;;;;32.01;35.62;100252.41;4809180;29;20038;-68
2021/08/11 08:58:15;;;;;;;11.27;4.82;;;;;;;32.15;34.99;100251.63;4837815;29;20124;-68
2021/08/11 09:00:42;;;;;;;13.57;5.03;;;;;;;32.24;34.27;100245.81;4821029;29;20048;-68
2021/08/11 09:03:31;;;;;;;10.88;4.80;;;;;;;32.19;33.54;100253.16;4802831;29;20072;-68
2021/08/11 09:05:57;;;;;;;12.68;5.38;;;;;;;32.32;33.36;100250.69;4737125;30;20041;-68
2021/08/11 09:09:12;;;;;;;9.55;4.90;;;;;;;32.40;33.56;100241.28;4767056;30;20104;-68
2021/08/11 09:11:44;;;;;;;10.50;5.28;;;;;;;32.59;34.07;100235.72;4768031;30;20044;-68
2021/08/11 09:14:44;;;;;;;12.93;5.68;;;;;;;32.86;36.25;100247.53;4772302;29;20569;-71
2021/08/11 09:17:40;;;;;;;11.88;5.32;;;;;;;32.92;34.16;100235.63;4745105;30;20056;-68
2021/08/11 09:20:07;;;;;;;41.95;7.28;;;;;;;32.79;33.53;100238.16;4753156;30;20055;-68
2021/08/11 09:22:50;;;;;;;37.08;6.95;;;;;;;32.84;33.08;100233.44;4783887;30;20043;-68
2021/08/11 09:25:17;;;;;;;10.63;6.00;;;;;;;32.74;33.01;100233.97;4784861;30;20044;-68
2021/08/11 09:27:46;;;;;;;9.38;5.45;;;;;;;32.84;33.31;100228.09;4785417;30;20039;-68
2021/08/11 09:30:19;;;;;;;12.68;5.43;;;;;;;33.09;32.80;100227.44;4802854;29;20518;-68
2021/08/11 09:33:03;;;;;;;11.00;5.53;;;;;;;33.29;32.60;100222.72;4802547;29;20095;-68
2021/08/11 09:35:30;;;;;;;12.32;5.93;;;;;;;33.58;34.37;100220.00;4805502;29;20050;-69
2021/08/11 09:38:20;;;;;;;8.88;5.20;;;;;;;33.62;31.59;100205.47;4784712;29;20131;-68
2021/08/11 09:40:57;;;;;;;11.10;5.47;;;;;;;33.74;31.32;100209.19;4789448;29;20051;-68
2021/08/11 09:43:38;;;;;;;13.88;5.18;;;;;;;33.79;31.15;100196.34;4792143;29;20132;-69
2021/08/11 09:46:27;;;;;;;10.32;5.10;;;;;;;34.00;32.67;100196.81;4809243;29;20043;-69
2021/08/11 09:48:54;;;;;;;10.20;5.13;;;;;;;34.19;30.96;100193.75;4784501;30;20104;-69
2021/08/11 09:51:22;;;;;;;14.70;5.72;;;;;;;34.05;30.42;100172.38;4806451;29;20088;-69
2021/08/11 09:53:52;;;;;;;14.88;5.50;;;;;;;34.32;31.23;100180.38;4838860;29;20061;-69
2021/08/11 09:56:21;;;;;;;9.65;5.32;;;;;;;34.57;30.54;100179.63;4855136;29;20470;-69
2021/08/11 09:59:23;;;;;;;10.63;5.37;;;;;;;34.72;30.95;100177.69;4951822;29;20101;-69
2021/08/11 10:01:49;;;;;;;11.63;5.35;;;;;;;34.89;30.74;100181.06;4946987;28;20291;-69
2021/08/11 10:04:19;;;;;;;10.68;5.03;;;;;;;34.80;29.65;100156.53;4945394;28;20038;-69
2021/08/11 10:06:52;;;;;;;10.80;4.82;;;;;;;34.77;30.11;100148.72;4894267;29;20051;-68
2021/08/11 10:09:26;;;;;;;8.73;5.03;;;;;;;34.93;29.49;100172.69;4913389;29;20064;-69
2021/08/11 10:12:01;;;;;;;13.95;5.15;;;;;;;35.13;29.16;100167.72;4897585;29;20079;-68
2021/08/11 10:14:35;;;;;;;10.32;4.80;;;;;;;35.06;28.90;100145.00;4913083;29;20040;-68
2021/08/11 10:17:15;;;;;;;7.30;5.00;;;;;;;35.31;29.60;100160.19;4913407;29;20044;-68
2021/08/11 10:19:52;;;;;;;7.72;5.13;;;;;;;35.62;27.92;100158.84;4897696;29;20035;-69
2021/08/11 10:22:44;;;;;;;9.88;4.78;;;;;;;35.90;29.57;100158.66;4913121;29;20077;-69
2021/08/11 10:25:11;;;;;;;8.90;5.38;;;;;;;35.77;28.95;100148.78;4932219;29;20526;-68
2021/08/11 10:28:03;;;;;;;8.48;4.70;;;;;;;35.68;29.23;100151.28;4931958;29;20075;-68
2021/08/11 10:30:51;;;;;;;8.25;4.80;;;;;;;35.92;27.49;100144.13;4913223;29;20107;-69
2021/08/11 10:33:19;;;;;;;9.20;5.20;;;;;;;36.10;27.16;100128.47;4861314;29;20466;-68
2021/08/11 10:35:48;;;;;;;11.10;5.10;;;;;;;36.07;26.90;100117.94;4891122;29;20547;-68
2021/08/11 10:38:17;;;;;;;9.13;4.93;;;;;;;35.17;26.73;100093.22;4890096;29;20040;-69
2021/08/11 10:40:48;;;;;;;;;;;;;;;35.77;27.20;100134.50;4910212;29;20037;-68
2021/08/11 10:43:15;;;;;;;10.63;5.00;;;;;;;36.14;26.33;100134.47;4896640;29;20333;-69
2021/08/11 10:45:45;;;;;;;7.53;5.22;;;;;;;36.39;26.98;100127.19;4909121;29;20052;-68
2021/08/11 10:48:21;;;;;;;7.70;5.03;;;;;;;36.42;25.71;100116.22;4893979;29;20467;-68
2021/08/11 10:51:07;;;;;;;7.13;4.80;;;;;;;36.63;25.14;100108.31;4912758;29;20548;-69
2021/08/11 10:53:36;;;;;;;6.38;4.90;;;;;;;36.67;24.91;100108.94;4897003;29;20056;-69
2021/08/11 10:57:15;;;;;;;6.85;4.60;;;;;;;36.80;27.46;100112.38;4931787;29;20035;-68
2021/08/11 10:59:40;;;;;;;7.90;5.13;;;;;;;36.90;25.54;100102.59;4912783;29;20080;-72
2021/08/11 11:02:43;;;;;;;9.48;5.32;;;;;;;36.50;24.19;100086.03;4907274;29;20416;-69
2021/08/11 11:05:28;;;;;;;8.73;4.88;;;;;;;36.84;24.94;100084.22;4897196;29;20627;-69
2021/08/11 11:08:23;;;;;;;7.57;4.72;;;;;;;37.07;24.33;100079.72;4873121;29;20048;-68
2021/08/11 11:10:54;;;;;;;11.13;5.82;;;;;;;37.02;24.49;100081.91;4878638;29;20092;-69
2021/08/11 11:13:33;;;;;;;11.98;5.38;;;;;;;36.80;24.79;100072.03;4891641;29;20068;-69
2021/08/11 11:16:27;;;;;;;9.55;5.05;;;;;;;36.91;24.70;100081.94;4878609;29;20075;-69
2021/08/11 11:19:25;;;;;;;6.72;4.82;;;;;;;37.35;23.15;100077.50;4878371;29;20041;-69
2021/08/11 11:22:36;;;;;;;8.00;4.57;;;;;;;37.36;22.94;100075.66;4837894;29;20052;-69
2021/08/11 11:25:59;;;;;;;8.82;4.90;;;;;;;37.34;22.44;100069.56;4859917;29;20555;-68
2021/08/11 11:29:02;;;;;;;8.55;4.90;;;;;;;37.52;22.96;100062.63;4852269;29;20049;-69
2021/08/11 11:31:51;;;;;;;8.70;4.80;;;;;;;37.69;22.81;100055.81;4850342;29;20386;-69
2021/08/11 11:34:38;;;;;;;10.52;4.80;;;;;;;37.81;23.06;100039.59;4890064;29;20592;-69
2021/08/11 11:40:03;;;;;;;7.45;4.78;;;;;;;37.73;23.05;100045.63;4896942;29;20055;-69
2021/08/11 11:42:48;;;;;;;6.63;4.60;;;;;;;38.06;21.33;100040.22;4878539;29;20084;-69
2021/08/11 11:45:22;;;;;;;6.10;4.38;;;;;;;38.18;21.68;100036.47;4847258;29;20055;-70
2021/08/11 11:48:03;;;;;;;8.57;4.63;;;;;;;38.44;23.09;100046.88;4861577;29;20059;-69
2021/08/11 11:50:42;;;;;;;11.68;5.10;;;;;;;38.15;20.64;100024.13;4870223;29;20053;-70
2021/08/11 11:53:24;;;;;;;5.75;4.30;;;;;;;38.06;19.80;100022.22;4859544;29;20045;-70
2021/08/11 11:55:51;;;;;;;7.60;4.25;;;;;;;37.99;20.45;100023.75;4866938;29;20036;-70
2021/08/11 11:58:46;;;;;;;5.93;3.88;;;;;;;37.39;20.30;100008.09;4880997;29;20091;-70
2021/08/11 12:01:36;;;;;;;5.82;4.40;;;;;;;37.72;23.89;100007.09;4896481;29;20037;-69
2021/08/11 12:04:03;;;;;;;8.70;4.53;;;;;;;37.89;22.46;100028.22;4895818;29;20063;-70
2021/08/11 12:06:59;;;;;;;7.90;4.45;;;;;;;37.96;23.09;100024.00;4896318;29;20051;-73
2021/08/11 12:09:44;;;;;;;5.20;4.43;;;;;;;38.24;23.42;100014.38;4877714;29;20070;-70
2021/08/11 12:12:11;;;;;;;7.35;5.10;;;;;;;38.37;22.70;100016.88;4862376;29;20056;-69
2021/08/11 12:15:21;;;;;;;6.72;4.00;;;;;;;38.33;21.09;100015.44;4877624;29;20040;-69
2021/08/11 12:17:48;;;;;;;7.28;4.75;;;;;;;38.15;21.08;99981.00;4893784;29;20044;-69
2021/08/11 12:20:33;;;;;;;7.88;4.50;;;;;;;38.16;20.62;100006.97;4898945;29;20032;-69
2021/08/11 12:23:22;;;;;;;12.18;4.72;;;;;;;37.67;20.90;100003.94;4915190;29;20048;-69
2021/08/11 12:25:54;;;;;;;5.50;4.20;;;;;;;37.95;22.83;99996.19;4933766;29;20072;-68
2021/08/11 12:28:46;;;;;;;9.73;4.78;;;;;;;38.14;22.63;99990.06;4914585;29;20134;-69
2021/08/11 12:31:33;;;;;;;4.78;3.97;;;;;;;37.88;19.96;99984.25;4842861;29;20041;-69
2021/08/11 12:34:01;;;;;;;12.55;4.93;;;;;;;37.93;21.60;99986.53;4892999;29;20049;-68
2021/08/11 12:37:09;;;;;;;9.00;4.07;;;;;;;37.96;20.65;99986.25;4890278;29;20051;-70
2021/08/11 12:39:40;;;;;;;6.35;4.35;;;;;;;38.02;20.80;99983.91;4868217;29;20132;-70
2021/08/11 12:42:12;;;;;;;8.52;4.65;;;;;;;38.35;21.95;99987.34;4839963;29;20038;-69
2021/08/11 12:44:39;;;;;;;6.70;4.75;;;;;;;38.31;22.11;99985.09;4855364;29;20046;-69
2021/08/11 12:47:07;;;;;;;6.38;4.43;;;;;;;38.41;21.38;99980.56;4840099;29;20034;-70